Date,TemperatureHighF,TemperatureAvgF,TemperatureLowF,DewpointHighF,DewpointAvgF,DewpointLowF,HumidityHigh,HumidityAvg,HumidityLow,PressureMaxIn,PressureMinIn,WindSpeedMaxMPH,WindSpeedAvgMPH,GustSpeedMaxMPH,PrecipitationSumIn
2013-3-1,36,32,27,28,24,18,85,74,61,30.13,29.96,14,3,14,0.00
2013-3-2,33,28,25,22,20,16,78,69,58,30.12,30.07,17,5,19,0.00
2013-3-3,34,27,19,21,17,14,85,67,49,30.10,30.04,16,3,17,0.00
2013-3-4,37,28,16,27,19,13,90,72,52,30.15,30.02,9,1,11,0.00
2013-3-5,34,31,28,28,26,23,95,83,69,30.06,29.75,15,3,18,0.63
2013-3-6,38,32,27,31,27,24,94,82,68,30.25,29.85,14,4,16,0.08
2013-3-7,40,34,22,31,28,20,90,78,58,30.41,30.23,11,2,11,0.00
2013-3-8,40,27,13,27,20,10,94,77,50,30.50,30.39,8,1,10,0.00
2013-3-9,42,34,20,34,28,18,92,79,63,30.39,29.93,15,2,15,0.00
2013-3-10,58,47,36,47,40,32,92,78,66,29.93,29.67,11,2,14,0.03
2013-3-11,51,44,34,48,41,30,96,89,74,29.72,29.50,21,4,24,0.05
2013-3-12,36,33,30,31,28,24,93,83,64,29.94,29.72,18,4,23,0.04
2013-3-13,31,28,25,27,21,15,92,76,55,30.29,29.94,21,5,23,0.06
2013-3-14,43,31,20,29,20,15,86,66,41,30.31,30.11,13,2,18,0.00
2013-3-15,49,39,31,41,34,28,97,83,61,30.11,29.77,12,2,12,0.05
2013-3-16,41,35,30,39,32,22,95,87,73,30.08,29.63,12,4,16,0.00
2013-3-17,39,32,28,26,22,20,78,67,51,30.20,30.06,16,3,16,0.00
2013-3-18,35,32,28,34,28,21,100,87,75,30.06,29.57,21,3,24,0.01
2013-3-19,36,27,20,21,16,12,80,62,40,30.03,29.73,29,8,30,0.00
2013-3-20,29,24,19,17,14,9,88,66,49,30.03,29.97,23,5,23,0.01
2013-3-21,32,24,16,22,17,13,91,75,55,30.02,29.95,18,3,21,0.01
2013-3-22,41,29,19,22,18,11,92,66,32,30.06,29.99,16,2,18,0.00
2013-3-23,42,31,22,25,22,19,92,72,51,30.12,30.00,12,2,15,0.00
2013-3-24,38,33,28,27,25,22,82,72,56,30.01,29.58,27,4,31,0.00
2013-3-25,36,33,29,29,27,24,92,79,69,29.98,29.58,19,6,19,0.05
2013-3-26,42,36,33,32,29,25,89,77,55,30.20,29.97,17,4,20,0.01
2013-3-27,44,37,27,33,27,20,87,69,42,30.28,30.20,16,3,22,0.00
2013-3-28,51,38,26,28,23,19,85,59,32,30.32,30.26,15,2,17,0.00
2013-3-29,54,38,24,30,23,18,93,61,26,30.30,30.21,15,2,18,0.00
2013-3-30,56,40,23,37,28,20,93,67,38,30.23,29.89,15,2,15,0.00
2013-3-31,61,49,40,44,37,28,95,66,35,29.89,29.64,20,4,26,0.00